sensor_id;sensor_type;location;lat;lon;timestamp;pressure;altitude;pressure_sealevel;temperature;humidity
29461;BME280;16428;47.836;35.106;2023-05-23T00:00:09;100911.19;;;18.10;100.00
29461;BME280;16428;47.836;35.106;2023-05-23T00:02:37;100907.78;;;17.90;100.00
29461;BME280;16428;47.836;35.106;2023-05-23T00:05:05;100909.53;;;17.78;100.00
29461;BME280;16428;47.836;35.106;2023-05-23T00:07:33;100904.19;;;17.65;100.00
29461;BME280;16428;47.836;35.106;2023-05-23T00:10:00;100907.31;;;17.62;100.00
29461;BME280;16428;47.836;35.106;2023-05-23T00:12:27;100908.59;;;17.59;100.00
29461;BME280;16428;47.836;35.106;2023-05-23T00:14:55;100904.88;;;17.53;100.00
29461;BME280;16428;47.836;35.106;2023-05-23T00:17:22;100911.09;;;17.61;100.00
29461;BME280;16428;47.836;35.106;2023-05-23T00:19:51;100905.72;;;17.47;100.00
29461;BME280;16428;47.836;35.106;2023-05-23T00:22:18;100901.72;;;17.56;100.00
29461;BME280;16428;47.836;35.106;2023-05-23T00:24:45;100905.72;;;17.47;100.00
29461;BME280;16428;47.836;35.106;2023-05-23T00:27:12;100908.22;;;17.49;100.00
29461;BME280;16428;47.836;35.106;2023-05-23T00:29:40;100904.50;;;17.43;100.00
29461;BME280;16428;47.836;35.106;2023-05-23T00:32:07;100902.41;;;17.45;100.00
29461;BME280;16428;47.836;35.106;2023-05-23T00:34:35;100904.13;;;17.40;100.00
29461;BME280;16428;47.836;35.106;2023-05-23T00:37:04;100910.75;;;17.44;100.00
29461;BME280;16428;47.836;35.106;2023-05-23T00:39:31;100903.28;;;17.39;100.00
29461;BME280;16428;47.836;35.106;2023-05-23T00:42:03;100906.03;;;17.33;100.00
29461;BME280;16428;47.836;35.106;2023-05-23T00:44:31;100896.56;;;17.42;100.00
29461;BME280;16428;47.836;35.106;2023-05-23T00:46:59;100901.22;;;17.35;100.00
29461;BME280;16428;47.836;35.106;2023-05-23T00:49:26;100895.75;;;17.41;100.00
29461;BME280;16428;47.836;35.106;2023-05-23T00:51:54;100898.97;;;17.25;100.00
29461;BME280;16428;47.836;35.106;2023-05-23T00:54:25;100894.59;;;17.24;100.00
29461;BME280;16428;47.836;35.106;2023-05-23T00:56:54;100900.03;;;17.24;100.00
29461;BME280;16428;47.836;35.106;2023-05-23T00:59:23;100901.22;;;17.28;100.00
29461;BME280;16428;47.836;35.106;2023-05-23T01:01:53;100900.03;;;17.24;100.00
29461;BME280;16428;47.836;35.106;2023-05-23T01:04:22;100899.97;;;17.31;100.00
29461;BME280;16428;47.836;35.106;2023-05-23T01:06:56;100892.03;;;17.29;100.00
29461;BME280;16428;47.836;35.106;2023-05-23T01:09:26;100895.38;;;17.31;100.00
29461;BME280;16428;47.836;35.106;2023-05-23T01:12:03;100904.56;;;17.30;100.00
29461;BME280;16428;47.836;35.106;2023-05-23T01:20:14;100915.19;;;17.38;100.00
29461;BME280;16428;47.836;35.106;2023-05-23T01:28:07;100925.34;;;17.49;100.00
29461;BME280;16428;47.836;35.106;2023-05-23T01:30:38;100925.78;;;17.46;100.00
29461;BME280;16428;47.836;35.106;2023-05-23T01:33:07;100923.06;;;17.46;100.00
29461;BME280;16428;47.836;35.106;2023-05-23T01:35:35;100927.47;;;17.47;100.00
29461;BME280;16428;47.836;35.106;2023-05-23T01:38:03;100932.69;;;17.42;100.00
29461;BME280;16428;47.836;35.106;2023-05-23T01:40:30;100929.97;;;17.42;100.00
29461;BME280;16428;47.836;35.106;2023-05-23T01:42:57;100934.97;;;17.45;100.00
29461;BME280;16428;47.836;35.106;2023-05-23T01:45:26;100934.34;;;17.50;100.00
29461;BME280;16428;47.836;35.106;2023-05-23T01:47:54;100937.53;;;17.40;100.00
29461;BME280;16428;47.836;35.106;2023-05-23T01:50:23;100936.03;;;17.44;100.00
29461;BME280;16428;47.836;35.106;2023-05-23T01:52:52;100935.41;;;17.42;100.00
29461;BME280;16428;47.836;35.106;2023-05-23T01:55:20;100933.38;;;17.38;100.00
29461;BME280;16428;47.836;35.106;2023-05-23T01:57:56;100941.50;;;17.38;100.00
29461;BME280;16428;47.836;35.106;2023-05-23T02:00:24;100945.44;;;17.42;100.00
29461;BME280;16428;47.836;35.106;2023-05-23T02:02:51;100941.03;;;17.47;100.00
29461;BME280;16428;47.836;35.106;2023-05-23T02:05:19;100937.91;;;17.50;100.00
29461;BME280;16428;47.836;35.106;2023-05-23T02:07:46;100950.66;;;17.43;100.00
29461;BME280;16428;47.836;35.106;2023-05-23T02:10:13;100942.16;;;17.33;100.00
29461;BME280;16428;47.836;35.106;2023-05-23T02:12:41;100941.31;;;17.39;100.00
29461;BME280;16428;47.836;35.106;2023-05-23T02:15:08;100934.97;;;17.52;100.00
29461;BME280;16428;47.836;35.106;2023-05-23T02:17:36;100945.44;;;17.42;100.00
29461;BME280;16428;47.836;35.106;2023-05-23T02:20:05;100947.34;;;17.41;100.00
29461;BME280;16428;47.836;35.106;2023-05-23T02:22:33;100950.78;;;17.62;100.00
29461;BME280;16428;47.836;35.106;2023-05-23T02:25:01;100954.41;;;17.42;100.00
29461;BME280;16428;47.836;35.106;2023-05-23T02:27:28;100946.22;;;17.55;100.00
29461;BME280;16428;47.836;35.106;2023-05-23T02:29:55;100945.41;;;17.55;100.00
29461;BME280;16428;47.836;35.106;2023-05-23T02:32:22;100955.66;;;17.46;100.00
29461;BME280;16428;47.836;35.106;2023-05-23T02:34:51;100950.66;;;17.43;100.00
29461;BME280;16428;47.836;35.106;2023-05-23T02:37:22;100951.53;;;17.37;100.00
29461;BME280;16428;47.836;35.106;2023-05-23T02:39:49;100954.41;;;17.42;100.00
29461;BME280;16428;47.836;35.106;2023-05-23T02:42:16;100950.44;;;17.45;100.00
29461;BME280;16428;47.836;35.106;2023-05-23T02:44:43;100948.78;;;17.44;100.00
29461;BME280;16428;47.836;35.106;2023-05-23T02:47:10;100943.56;;;17.42;100.00
29461;BME280;16428;47.836;35.106;2023-05-23T02:49:37;100941.84;;;17.54;100.00
29461;BME280;16428;47.836;35.106;2023-05-23T02:52:05;100942.00;;;17.59;100.00
29461;BME280;16428;47.836;35.106;2023-05-23T02:54:33;100944.56;;;17.54;100.00
29461;BME280;16428;47.836;35.106;2023-05-23T02:57:00;100948.34;;;17.53;100.00
29461;BME280;16428;47.836;35.106;2023-05-23T02:59:27;100945.00;;;17.51;100.00
29461;BME280;16428;47.836;35.106;2023-05-23T03:01:54;100949.94;;;17.61;100.00
29461;BME280;16428;47.836;35.106;2023-05-23T03:04:22;100949.72;;;17.63;100.00
29461;BME280;16428;47.836;35.106;2023-05-23T03:06:50;100948.72;;;17.64;100.00
29461;BME280;16428;47.836;35.106;2023-05-23T03:09:20;100940.97;;;17.61;100.00
29461;BME280;16428;47.836;35.106;2023-05-23T03:11:47;100951.19;;;17.72;100.00
29461;BME280;16428;47.836;35.106;2023-05-23T03:14:14;100941.75;;;17.74;100.00
29461;BME280;16428;47.836;35.106;2023-05-23T03:16:42;100956.25;;;17.93;100.00
29461;BME280;16428;47.836;35.106;2023-05-23T03:19:09;100951.09;;;17.85;100.00
29461;BME280;16428;47.836;35.106;2023-05-23T03:21:36;100947.41;;;17.73;100.00
29461;BME280;16428;47.836;35.106;2023-05-23T03:24:04;100951.13;;;17.78;100.00
29461;BME280;16428;47.836;35.106;2023-05-23T03:26:31;100947.66;;;17.71;100.00
29461;BME280;16428;47.836;35.106;2023-05-23T03:28:58;100946.97;;;17.76;100.00
29461;BME280;16428;47.836;35.106;2023-05-23T03:31:25;100947.41;;;17.73;100.00
29461;BME280;16428;47.836;35.106;2023-05-23T03:33:52;100942.78;;;17.80;100.00
29461;BME280;16428;47.836;35.106;2023-05-23T03:36:19;100945.59;;;17.91;100.00
29461;BME280;16428;47.836;35.106;2023-05-23T03:38:47;100950.22;;;17.91;100.00
29461;BME280;16428;47.836;35.106;2023-05-23T03:41:15;100947.06;;;17.94;100.00
29461;BME280;16428;47.836;35.106;2023-05-23T03:43:42;100942.34;;;17.83;100.00
29461;BME280;16428;47.836;35.106;2023-05-23T03:46:09;100931.28;;;17.78;100.00
29461;BME280;16428;47.836;35.106;2023-05-23T03:48:37;100934.34;;;17.88;100.00
29461;BME280;16428;47.836;35.106;2023-05-23T03:51:04;100940.28;;;18.03;100.00
29461;BME280;16428;47.836;35.106;2023-05-23T03:53:32;100944.25;;;18.07;100.00
29461;BME280;16428;47.836;35.106;2023-05-23T03:56:02;100954.19;;;18.20;100.00
29461;BME280;16428;47.836;35.106;2023-05-23T03:58:29;100950.81;;;18.00;100.00
29461;BME280;16428;47.836;35.106;2023-05-23T04:00:56;100948.91;;;18.00;100.00
29461;BME280;16428;47.836;35.106;2023-05-23T04:03:26;100952.50;;;17.94;100.00
29461;BME280;16428;47.836;35.106;2023-05-23T04:05:53;100944.25;;;18.07;100.00
29461;BME280;16428;47.836;35.106;2023-05-23T04:08:20;100945.66;;;18.16;100.00
29461;BME280;16428;47.836;35.106;2023-05-23T04:10:48;100941.06;;;18.17;100.00
29461;BME280;16428;47.836;35.106;2023-05-23T04:13:15;100947.66;;;18.27;100.00
29461;BME280;16428;47.836;35.106;2023-05-23T04:15:43;100939.41;;;18.34;100.00
29461;BME280;16428;47.836;35.106;2023-05-23T04:18:11;100938.50;;;18.47;100.00
29461;BME280;16428;47.836;35.106;2023-05-23T04:20:38;100939.69;;;18.51;100.00
29461;BME280;16428;47.836;35.106;2023-05-23T04:23:05;100932.13;;;18.53;100.00
29461;BME280;16428;47.836;35.106;2023-05-23T04:25:32;100937.13;;;18.63;100.00
29461;BME280;16428;47.836;35.106;2023-05-23T04:28:00;100935.81;;;18.65;100.00
29461;BME280;16428;47.836;35.106;2023-05-23T04:30:27;100937.81;;;18.76;100.00
29461;BME280;16428;47.836;35.106;2023-05-23T04:32:56;100941.91;;;18.85;100.00
29461;BME280;16428;47.836;35.106;2023-05-23T04:35:26;100942.94;;;18.84;100.00
29461;BME280;16428;47.836;35.106;2023-05-23T04:37:59;100936.84;;;18.89;100.00
29461;BME280;16428;47.836;35.106;2023-05-23T04:40:28;100935.03;;;19.01;100.00
29461;BME280;16428;47.836;35.106;2023-05-23T04:42:56;100940.97;;;19.10;100.00
29461;BME280;16428;47.836;35.106;2023-05-23T04:45:23;100942.66;;;19.11;100.00
29461;BME280;16428;47.836;35.106;2023-05-23T04:47:52;100948.56;;;19.08;100.00
29461;BME280;16428;47.836;35.106;2023-05-23T04:50:22;100947.03;;;19.12;100.00
29461;BME280;16428;47.836;35.106;2023-05-23T04:52:49;100941.28;;;19.20;100.00
29461;BME280;16428;47.836;35.106;2023-05-23T04:55:16;100952.94;;;19.27;100.00
29461;BME280;16428;47.836;35.106;2023-05-23T04:57:43;100951.97;;;19.21;100.00
29461;BME280;16428;47.836;35.106;2023-05-23T05:00:11;100948.84;;;19.18;100.00
29461;BME280;16428;47.836;35.106;2023-05-23T05:02:40;100949.53;;;19.31;100.00
29461;BME280;16428;47.836;35.106;2023-05-23T05:05:08;100950.97;;;19.34;100.00
29461;BME280;16428;47.836;35.106;2023-05-23T05:07:35;100946.81;;;19.50;100.00
29461;BME280;16428;47.836;35.106;2023-05-23T05:10:02;100948.75;;;19.43;100.00
29461;BME280;16428;47.836;35.106;2023-05-23T05:12:30;100949.34;;;19.45;100.00
29461;BME280;16428;47.836;35.106;2023-05-23T05:14:57;100942.63;;;19.47;100.00
29461;BME280;16428;47.836;35.106;2023-05-23T05:17:24;100953.28;;;19.49;100.00
29461;BME280;16428;47.836;35.106;2023-05-23T05:19:52;100956.47;;;19.64;100.00
29461;BME280;16428;47.836;35.106;2023-05-23T05:22:19;100955.25;;;19.60;100.00
29461;BME280;16428;47.836;35.106;2023-05-23T05:24:46;100966.88;;;19.55;100.00
29461;BME280;16428;47.836;35.106;2023-05-23T05:27:13;100967.38;;;19.64;100.00
29461;BME280;16428;47.836;35.106;2023-05-23T05:29:40;100964.41;;;19.65;100.00
29461;BME280;16428;47.836;35.106;2023-05-23T05:32:08;100957.13;;;19.78;100.00
29461;BME280;16428;47.836;35.106;2023-05-23T05:34:35;100960.22;;;19.81;100.00
29461;BME280;16428;47.836;35.106;2023-05-23T05:37:04;100960.00;;;19.83;100.00
29461;BME280;16428;47.836;35.106;2023-05-23T05:39:31;100954.41;;;19.89;100.00
29461;BME280;16428;47.836;35.106;2023-05-23T05:41:59;100947.88;;;19.79;100.00
29461;BME280;16428;47.836;35.106;2023-05-23T05:44:27;100958.03;;;19.72;100.00
29461;BME280;16428;47.836;35.106;2023-05-23T05:46:54;100955.41;;;19.65;100.00
29461;BME280;16428;47.836;35.106;2023-05-23T05:49:21;100956.66;;;19.81;100.00
29461;BME280;16428;47.836;35.106;2023-05-23T05:51:48;100957.38;;;19.88;100.00
29461;BME280;16428;47.836;35.106;2023-05-23T05:54:15;100960.44;;;19.80;100.00
29461;BME280;16428;47.836;35.106;2023-05-23T05:56:46;100961.66;;;19.84;100.00
29461;BME280;16428;47.836;35.106;2023-05-23T05:59:13;100949.72;;;19.66;100.00
29461;BME280;16428;47.836;35.106;2023-05-23T06:01:40;100954.19;;;19.91;100.00
29461;BME280;16428;47.836;35.106;2023-05-23T06:04:07;100950.59;;;19.79;100.00
29461;BME280;16428;47.836;35.106;2023-05-23T06:06:35;100945.75;;;19.81;100.00
29461;BME280;16428;47.836;35.106;2023-05-23T06:09:02;100953.88;;;19.99;100.00
29461;BME280;16428;47.836;35.106;2023-05-23T06:11:29;100952.06;;;19.93;100.00
29461;BME280;16428;47.836;35.106;2023-05-23T06:13:58;100956.09;;;20.02;100.00
29461;BME280;16428;47.836;35.106;2023-05-23T06:16:25;100954.16;;;20.32;100.00
29461;BME280;16428;47.836;35.106;2023-05-23T06:18:52;100948.09;;;20.19;100.00
29461;BME280;16428;47.836;35.106;2023-05-23T06:21:20;100943.44;;;19.96;100.00
29461;BME280;16428;47.836;35.106;2023-05-23T06:23:48;100949.13;;;20.06;100.00
29461;BME280;16428;47.836;35.106;2023-05-23T06:26:15;100946.91;;;20.15;100.00
29461;BME280;16428;47.836;35.106;2023-05-23T06:28:43;100945.03;;;20.15;100.00
29461;BME280;16428;47.836;35.106;2023-05-23T06:31:10;100940.63;;;20.14;100.00
29461;BME280;16428;47.836;35.106;2023-05-23T06:33:37;100937.50;;;19.99;100.00
29461;BME280;16428;47.836;35.106;2023-05-23T06:36:04;100937.09;;;20.25;100.00
29461;BME280;16428;47.836;35.106;2023-05-23T06:38:32;100933.06;;;20.16;100.00
29461;BME280;16428;47.836;35.106;2023-05-23T06:40:59;100935.88;;;20.21;100.00
29461;BME280;16428;47.836;35.106;2023-05-23T06:43:28;100937.63;;;20.04;100.00
29461;BME280;16428;47.836;35.106;2023-05-23T06:45:55;100934.44;;;20.07;100.00
29461;BME280;16428;47.836;35.106;2023-05-23T06:48:24;100922.69;;;20.18;100.00
29461;BME280;16428;47.836;35.106;2023-05-23T06:50:51;100925.56;;;20.23;100.00
29461;BME280;16428;47.836;35.106;2023-05-23T06:53:18;100930.19;;;20.34;100.00
29461;BME280;16428;47.836;35.106;2023-05-23T06:55:45;100932.84;;;20.53;100.00
29461;BME280;16428;47.836;35.106;2023-05-23T06:58:13;100931.88;;;20.35;100.00
29461;BME280;16428;47.836;35.106;2023-05-23T07:00:40;100940.88;;;20.24;100.00
29461;BME280;16428;47.836;35.106;2023-05-23T07:03:08;100933.28;;;20.26;100.00
29461;BME280;16428;47.836;35.106;2023-05-23T07:05:35;100932.31;;;20.32;100.00
29461;BME280;16428;47.836;35.106;2023-05-23T07:08:07;100932.63;;;20.43;100.00
29461;BME280;16428;47.836;35.106;2023-05-23T07:10:37;100934.75;;;20.41;100.00
29461;BME280;16428;47.836;35.106;2023-05-23T07:13:07;100931.19;;;20.52;100.00
29461;BME280;16428;47.836;35.106;2023-05-23T07:15:35;100928.09;;;20.36;100.00
29461;BME280;16428;47.836;35.106;2023-05-23T07:18:02;100931.69;;;20.60;100.00
29461;BME280;16428;47.836;35.106;2023-05-23T07:20:32;100938.09;;;20.43;100.00
29461;BME280;16428;47.836;35.106;2023-05-23T07:22:59;100941.88;;;20.42;100.00
29461;BME280;16428;47.836;35.106;2023-05-23T07:25:26;100937.44;;;20.29;100.00
29461;BME280;16428;47.836;35.106;2023-05-23T07:27:54;100936.88;;;20.39;100.00
29461;BME280;16428;47.836;35.106;2023-05-23T07:30:21;100925.88;;;20.45;100.00
29461;BME280;16428;47.836;35.106;2023-05-23T07:32:49;100924.53;;;20.48;100.00
29461;BME280;16428;47.836;35.106;2023-05-23T07:35:19;100926.78;;;20.62;100.00
29461;BME280;16428;47.836;35.106;2023-05-23T07:37:49;100932.75;;;20.71;100.00
29461;BME280;16428;47.836;35.106;2023-05-23T07:40:17;100935.59;;;20.76;100.00
29461;BME280;16428;47.836;35.106;2023-05-23T07:42:45;100927.41;;;20.76;100.00
29461;BME280;16428;47.836;35.106;2023-05-23T07:45:12;100922.28;;;20.68;100.00
29461;BME280;16428;47.836;35.106;2023-05-23T07:47:41;100930.03;;;20.59;100.00
29461;BME280;16428;47.836;35.106;2023-05-23T07:50:08;100929.78;;;20.61;100.00
29461;BME280;16428;47.836;35.106;2023-05-23T07:52:36;100934.53;;;20.54;100.00
29461;BME280;16428;47.836;35.106;2023-05-23T07:55:04;100937.25;;;20.65;100.00
29461;BME280;16428;47.836;35.106;2023-05-23T07:57:31;100929.53;;;20.74;100.00
29461;BME280;16428;47.836;35.106;2023-05-23T07:59:58;100925.84;;;20.57;100.00
29461;BME280;16428;47.836;35.106;2023-05-23T08:02:26;100924.41;;;20.66;100.00
29461;BME280;16428;47.836;35.106;2023-05-23T08:04:53;100921.69;;;20.66;100.00
29461;BME280;16428;47.836;35.106;2023-05-23T08:07:20;100920.28;;;20.52;100.00
29461;BME280;16428;47.836;35.106;2023-05-23T08:09:47;100917.44;;;20.70;100.00
29461;BME280;16428;47.836;35.106;2023-05-23T08:12:15;100914.44;;;20.83;100.00
29461;BME280;16428;47.836;35.106;2023-05-23T08:14:42;100915.13;;;21.02;100.00
29461;BME280;16428;47.836;35.106;2023-05-23T08:17:15;100915.44;;;21.29;100.00
29461;BME280;16428;47.836;35.106;2023-05-23T08:19:42;100909.38;;;21.55;100.00
29461;BME280;16428;47.836;35.106;2023-05-23T08:22:10;100913.41;;;21.64;100.00
29461;BME280;16428;47.836;35.106;2023-05-23T08:24:37;100911.53;;;21.82;100.00
29461;BME280;16428;47.836;35.106;2023-05-23T08:27:04;100918.06;;;21.81;100.00
29461;BME280;16428;47.836;35.106;2023-05-23T08:29:34;100923.31;;;21.99;100.00
29461;BME280;16428;47.836;35.106;2023-05-23T08:32:02;100916.22;;;22.15;100.00
29461;BME280;16428;47.836;35.106;2023-05-23T08:34:30;100916.88;;;22.38;100.00
29461;BME280;16428;47.836;35.106;2023-05-23T08:36:58;100918.44;;;22.34;100.00
29461;BME280;16428;47.836;35.106;2023-05-23T08:39:27;100909.50;;;22.39;100.00
29461;BME280;16428;47.836;35.106;2023-05-23T08:41:55;100914.47;;;22.59;99.41
29461;BME280;16428;47.836;35.106;2023-05-23T08:44:22;100912.31;;;22.61;100.00
29461;BME280;16428;47.836;35.106;2023-05-23T08:46:52;100904.09;;;22.61;100.00
29461;BME280;16428;47.836;35.106;2023-05-23T08:49:21;100908.28;;;22.68;99.72
29461;BME280;16428;47.836;35.106;2023-05-23T08:51:50;100912.34;;;22.66;99.91
29461;BME280;16428;47.836;35.106;2023-05-23T08:54:20;100905.09;;;22.55;98.88
29461;BME280;16428;47.836;35.106;2023-05-23T08:56:48;100897.84;;;22.65;100.00
29461;BME280;16428;47.836;35.106;2023-05-23T08:59:19;100899.88;;;22.92;99.63
29461;BME280;16428;47.836;35.106;2023-05-23T09:01:47;100892.59;;;22.64;99.32
29461;BME280;16428;47.836;35.106;2023-05-23T09:04:14;100886.88;;;22.65;99.93
29461;BME280;16428;47.836;35.106;2023-05-23T09:06:41;100891.41;;;22.55;97.98
29461;BME280;16428;47.836;35.106;2023-05-23T09:09:09;100895.53;;;22.57;100.00
29461;BME280;16428;47.836;35.106;2023-05-23T09:11:36;100887.25;;;22.52;100.00
29461;BME280;16428;47.836;35.106;2023-05-23T09:14:04;100885.88;;;22.88;98.95
29461;BME280;16428;47.836;35.106;2023-05-23T09:16:34;100891.91;;;23.12;99.14
29461;BME280;16428;47.836;35.106;2023-05-23T09:19:11;100877.63;;;23.32;98.29
29461;BME280;16428;47.836;35.106;2023-05-23T09:21:43;100883.28;;;23.47;94.74
29461;BME280;16428;47.836;35.106;2023-05-23T09:24:11;100878.53;;;23.37;96.07
29461;BME280;16428;47.836;35.106;2023-05-23T09:26:39;100875.22;;;23.62;94.98
29461;BME280;16428;47.836;35.106;2023-05-23T09:29:06;100879.13;;;23.44;94.49
29461;BME280;16428;47.836;35.106;2023-05-23T09:31:34;100871.56;;;23.30;95.69
29461;BME280;16428;47.836;35.106;2023-05-23T09:34:02;100865.09;;;23.41;95.47
29461;BME280;16428;47.836;35.106;2023-05-23T09:36:30;100866.81;;;23.47;96.06
29461;BME280;16428;47.836;35.106;2023-05-23T09:39:03;100867.06;;;23.45;96.67
29461;BME280;16428;47.836;35.106;2023-05-23T09:41:34;100876.72;;;23.26;96.63
29461;BME280;16428;47.836;35.106;2023-05-23T09:44:06;100866.34;;;23.28;97.40
29461;BME280;16428;47.836;35.106;2023-05-23T09:46:35;100866.50;;;23.43;95.62
29461;BME280;16428;47.836;35.106;2023-05-23T09:49:15;100871.97;;;23.17;96.82
29461;BME280;16428;47.836;35.106;2023-05-23T09:51:58;100872.06;;;23.48;94.95
29461;BME280;16428;47.836;35.106;2023-05-23T09:54:26;100857.03;;;23.51;94.46
29461;BME280;16428;47.836;35.106;2023-05-23T09:56:53;100866.91;;;23.52;93.23
29461;BME280;16428;47.836;35.106;2023-05-23T09:59:27;100868.19;;;23.71;92.81
29461;BME280;16428;47.836;35.106;2023-05-23T10:01:56;100866.31;;;23.77;92.97
29461;BME280;16428;47.836;35.106;2023-05-23T10:04:24;100865.28;;;24.20;90.84
29461;BME280;16428;47.836;35.106;2023-05-23T10:06:56;100870.72;;;24.47;88.05
29461;BME280;16428;47.836;35.106;2023-05-23T10:09:29;100873.56;;;24.62;88.16
29461;BME280;16428;47.836;35.106;2023-05-23T10:12:15;100864.19;;;25.05;89.36
29461;BME280;16428;47.836;35.106;2023-05-23T10:14:56;100863.97;;;25.27;85.49
29461;BME280;16428;47.836;35.106;2023-05-23T10:20:09;100859.97;;;25.80;79.80
29461;BME280;16428;47.836;35.106;2023-05-23T10:22:39;100866.56;;;25.84;79.30
29461;BME280;16428;47.836;35.106;2023-05-23T10:25:08;100862.88;;;25.28;81.64
29461;BME280;16428;47.836;35.106;2023-05-23T10:27:40;100863.81;;;25.79;80.53
29461;BME280;16428;47.836;35.106;2023-05-23T10:30:09;100855.81;;;26.13;79.66
29461;BME280;16428;47.836;35.106;2023-05-23T10:32:38;100852.81;;;26.25;76.21
29461;BME280;16428;47.836;35.106;2023-05-23T10:37:54;100854.44;;;26.16;77.00
29461;BME280;16428;47.836;35.106;2023-05-23T10:43:30;100845.63;;;26.44;76.43
29461;BME280;16428;47.836;35.106;2023-05-23T10:45:58;100850.59;;;26.27;76.85
29461;BME280;16428;47.836;35.106;2023-05-23T10:48:41;100842.34;;;26.07;75.26
29461;BME280;16428;47.836;35.106;2023-05-23T10:51:10;100848.13;;;25.90;76.77
29461;BME280;16428;47.836;35.106;2023-05-23T10:53:39;100851.72;;;25.96;76.99
29461;BME280;16428;47.836;35.106;2023-05-23T10:56:09;100849.50;;;25.87;77.33
29461;BME280;16428;47.836;35.106;2023-05-23T10:58:39;100846.75;;;25.77;76.38
29461;BME280;16428;47.836;35.106;2023-05-23T11:01:08;100844.81;;;25.83;76.26
29461;BME280;16428;47.836;35.106;2023-05-23T11:09:02;100844.00;;;25.92;75.68
29461;BME280;16428;47.836;35.106;2023-05-23T11:11:58;100830.78;;;25.84;75.79
29461;BME280;16428;47.836;35.106;2023-05-23T11:17:17;100837.97;;;25.96;74.10
29461;BME280;16428;47.836;35.106;2023-05-23T11:22:28;100840.97;;;25.84;74.65
29461;BME280;16428;47.836;35.106;2023-05-23T11:24:59;100837.94;;;26.11;73.98
29461;BME280;16428;47.836;35.106;2023-05-23T11:27:29;100835.56;;;26.84;71.48
29461;BME280;16428;47.836;35.106;2023-05-23T11:29:59;100830.59;;;26.96;70.16
29461;BME280;16428;47.836;35.106;2023-05-23T11:32:30;100827.81;;;26.91;71.70
29461;BME280;16428;47.836;35.106;2023-05-23T11:35:02;100827.66;;;26.67;71.05
29461;BME280;16428;47.836;35.106;2023-05-23T11:37:31;100835.91;;;26.72;71.38
29461;BME280;16428;47.836;35.106;2023-05-23T11:39:59;100831.50;;;26.71;72.00
29461;BME280;16428;47.836;35.106;2023-05-23T11:42:45;100836.13;;;26.81;73.92
29461;BME280;16428;47.836;35.106;2023-05-23T11:45:13;100838.34;;;26.84;70.81
29461;BME280;16428;47.836;35.106;2023-05-23T11:47:41;100826.09;;;27.54;68.55
29461;BME280;16428;47.836;35.106;2023-05-23T11:50:09;100822.41;;;28.03;65.50
29461;BME280;16428;47.836;35.106;2023-05-23T11:52:37;100828.22;;;28.30;67.07
29461;BME280;16428;47.836;35.106;2023-05-23T11:55:06;100824.69;;;28.54;63.17
29461;BME280;16428;47.836;35.106;2023-05-23T11:57:37;100822.84;;;28.44;62.63
29461;BME280;16428;47.836;35.106;2023-05-23T12:00:06;100827.78;;;27.89;64.29
29461;BME280;16428;47.836;35.106;2023-05-23T12:02:41;100820.50;;;27.20;68.15
29461;BME280;16428;47.836;35.106;2023-05-23T12:05:10;100814.19;;;27.20;68.80
29461;BME280;16428;47.836;35.106;2023-05-23T12:07:43;100828.44;;;26.78;68.05
29461;BME280;16428;47.836;35.106;2023-05-23T12:10:12;100823.56;;;26.54;69.59
29461;BME280;16428;47.836;35.106;2023-05-23T12:12:40;100826.09;;;26.36;67.87
29461;BME280;16428;47.836;35.106;2023-05-23T12:15:11;100832.97;;;26.13;70.70
29461;BME280;16428;47.836;35.106;2023-05-23T12:17:43;100851.72;;;25.80;73.02
29461;BME280;16428;47.836;35.106;2023-05-23T12:20:12;100845.06;;;24.73;96.10
29461;BME280;16428;47.836;35.106;2023-05-23T12:22:41;100848.91;;;23.93;100.00
29461;BME280;16428;47.836;35.106;2023-05-23T12:25:08;100837.53;;;23.26;100.00
29461;BME280;16428;47.836;35.106;2023-05-23T12:27:40;100844.78;;;22.50;100.00
29461;BME280;16428;47.836;35.106;2023-05-23T12:30:12;100847.50;;;22.11;100.00
29461;BME280;16428;47.836;35.106;2023-05-23T12:32:44;100834.53;;;21.90;100.00
29461;BME280;16428;47.836;35.106;2023-05-23T12:35:14;100838.66;;;21.59;100.00
29461;BME280;16428;47.836;35.106;2023-05-23T12:37:43;100846.22;;;21.40;100.00
29461;BME280;16428;47.836;35.106;2023-05-23T12:40:15;100836.34;;;21.11;100.00
29461;BME280;16428;47.836;35.106;2023-05-23T12:45:31;100833.81;;;20.92;100.00
29461;BME280;16428;47.836;35.106;2023-05-23T12:47:59;100847.22;;;20.94;100.00
29461;BME280;16428;47.836;35.106;2023-05-23T12:50:28;100853.25;;;21.08;100.00
29461;BME280;16428;47.836;35.106;2023-05-23T12:52:56;100854.44;;;21.00;100.00
29461;BME280;16428;47.836;35.106;2023-05-23T12:55:23;100845.63;;;21.10;100.00
29461;BME280;16428;47.836;35.106;2023-05-23T12:57:51;100837.78;;;21.13;100.00
29461;BME280;16428;47.836;35.106;2023-05-23T13:00:18;100837.66;;;21.20;100.00
29461;BME280;16428;47.836;35.106;2023-05-23T13:02:46;100835.59;;;21.27;100.00
29461;BME280;16428;47.836;35.106;2023-05-23T13:05:13;100830.69;;;21.57;100.00
29461;BME280;16428;47.836;35.106;2023-05-23T13:07:41;100834.78;;;21.88;100.00
29461;BME280;16428;47.836;35.106;2023-05-23T13:10:08;100834.97;;;21.82;100.00
29461;BME280;16428;47.836;35.106;2023-05-23T13:12:36;100822.28;;;21.75;100.00